Time;durP1;ratioP1;P1;durP2;ratioP2;P2;SDS_P1;SDS_P2;PMS_P1;PMS_P2;Temp;Humidity;BMP_temperature;BMP_pressure;BME280_temperature;BME280_humidity;BME280_pressure;Samples;Min_cycle;Max_cycle;Signal;HPM_P1;HPM_P2
2021/05/22 00:01:03;;;;;;;2.75;1.10;;;;;;;7.45;83.53;99711.78;5042585;28;20236;-86
2021/05/22 00:03:28;;;;;;;2.08;1.42;;;;;;;7.50;83.34;99712.56;5041455;28;20029;-85
2021/05/22 00:05:54;;;;;;;2.92;1.15;;;;;;;7.50;83.31;99712.56;5041283;28;20082;-86
2021/05/22 00:08:20;;;;;;;2.03;0.90;;;;;;;7.45;83.50;99709.19;5057196;28;20021;-86
2021/05/22 00:10:45;;;;;;;1.58;0.88;;;;;;;7.44;82.88;99712.66;5058023;28;20114;-87
2021/05/22 00:13:12;;;;;;;3.10;1.88;;;;;;;7.32;83.96;99712.91;5040869;28;20032;-86
2021/05/22 00:15:37;;;;;;;4.50;1.20;;;;;;;7.34;84.05;99705.94;5039887;28;20071;-86
2021/05/22 00:18:05;;;;;;;5.32;1.52;;;;;;;7.33;84.62;99702.47;5042284;28;20024;-87
2021/05/22 00:20:37;;;;;;;3.90;1.40;;;;;;;7.30;83.79;99706.91;5058981;28;20517;-87
2021/05/22 00:23:06;;;;;;;7.82;1.25;;;;;;;7.27;83.98;99695.66;5042830;28;20032;-85
2021/05/22 00:25:35;;;;;;;2.03;1.00;;;;;;;7.10;84.27;99695.97;5052331;28;20048;-86
2021/05/22 00:28:00;;;;;;;1.67;0.95;;;;;;;7.14;83.51;99693.31;5045122;28;20021;-88
2021/05/22 00:30:29;;;;;;;3.22;1.30;;;;;;;7.15;83.89;99690.69;5045743;28;20021;-85
2021/05/22 00:32:58;;;;;;;3.53;1.50;;;;;;;7.16;83.37;99692.41;5050895;28;20029;-86
2021/05/22 00:35:30;;;;;;;3.22;1.15;;;;;;;7.13;83.38;99687.28;5048169;28;20021;-87
2021/05/22 00:37:55;;;;;;;4.80;1.10;;;;;;;7.14;83.06;99698.50;5045973;28;20032;-87
2021/05/22 00:40:21;;;;;;;4.55;1.30;;;;;;;7.13;83.07;99700.25;5044977;28;20025;-86
2021/05/22 00:42:46;;;;;;;2.70;1.23;;;;;;;7.12;83.22;99698.53;5045803;28;20159;-86
2021/05/22 00:45:21;;;;;;;3.45;0.90;;;;;;;7.03;82.81;99706.50;5060651;28;20029;-86
2021/05/22 00:47:51;;;;;;;4.25;1.90;;;;;;;7.14;82.26;99701.94;5060003;28;20085;-86
2021/05/22 00:50:30;;;;;;;4.18;0.80;;;;;;;7.22;81.40;99697.47;5044729;28;20029;-87
2021/05/22 00:52:57;;;;;;;2.83;0.90;;;;;;;7.31;80.11;99695.59;5060849;28;20417;-84
2021/05/22 00:55:37;;;;;;;5.63;1.52;;;;;;;7.34;78.88;99691.22;5044992;28;20130;-84
2021/05/22 00:58:06;;;;;;;7.18;1.08;;;;;;;7.42;79.03;99693.66;5050642;28;20025;-84
2021/05/22 01:00:46;;;;;;;4.30;0.80;;;;;;;7.45;78.83;99694.44;5050148;28;20040;-89
2021/05/22 01:03:24;;;;;;;4.53;1.08;;;;;;;7.52;78.43;99687.38;5060691;28;20024;-83
2021/05/22 01:06:01;;;;;;;7.00;1.20;;;;;;;7.50;77.40;99704.78;5060472;28;20028;-88
2021/05/22 01:08:27;;;;;;;1.80;0.75;;;;;;;7.55;78.24;99689.94;5045723;28;20025;-82
2021/05/22 01:11:05;;;;;;;5.05;0.90;;;;;;;7.61;78.75;99692.41;5044622;28;20035;-86
2021/05/22 01:13:48;;;;;;;2.50;1.20;;;;;;;7.70;76.87;99693.09;5058938;28;20133;-84
2021/05/22 01:16:17;;;;;;;3.78;0.93;;;;;;;7.79;76.70;99698.13;5042869;28;20021;-84
2021/05/22 01:18:42;;;;;;;7.20;1.23;;;;;;;7.78;75.69;99691.22;5043325;28;20051;-83
2021/05/22 01:21:14;;;;;;;5.35;1.17;;;;;;;7.70;76.97;99699.19;5043491;28;20021;-83
2021/05/22 01:23:46;;;;;;;2.65;1.10;;;;;;;7.73;75.72;99682.63;5063984;28;20098;-83
2021/05/22 01:26:13;;;;;;;4.03;1.02;;;;;;;7.73;75.44;99685.25;5059895;28;20021;-84
2021/05/22 01:28:38;;;;;;;2.65;1.08;;;;;;;7.85;74.16;99678.94;5045533;28;20025;-81
2021/05/22 01:31:06;;;;;;;1.58;0.80;;;;;;;7.85;73.43;99676.34;5048436;28;20102;-86
2021/05/22 01:33:32;;;;;;;3.20;0.95;;;;;;;7.88;74.35;99676.25;5043789;28;20129;-81
2021/05/22 01:36:04;;;;;;;2.25;1.27;;;;;;;7.95;72.22;99668.31;5064775;28;20060;-82
2021/05/22 01:38:37;;;;;;;4.03;1.08;;;;;;;7.95;72.10;99675.25;5043558;28;20032;-82
2021/05/22 01:41:11;;;;;;;2.45;0.88;;;;;;;7.97;73.63;99667.44;5067253;28;20028;-81
2021/05/22 01:43:39;;;;;;;1.95;0.77;;;;;;;7.88;73.45;99671.94;5064931;28;20057;-84
2021/05/22 01:46:06;;;;;;;3.03;1.00;;;;;;;7.90;74.57;99664.94;5044377;28;20036;-82
2021/05/22 01:48:35;;;;;;;3.67;1.35;;;;;;;7.87;73.77;99669.38;5048411;28;20040;-84
2021/05/22 01:51:07;;;;;;;4.07;1.27;;;;;;;7.74;75.01;99663.56;5073199;28;20270;-82
2021/05/22 01:53:37;;;;;;;1.98;1.33;;;;;;;7.74;74.76;99663.56;5054651;28;20159;-82
2021/05/22 01:56:08;;;;;;;5.68;0.75;;;;;;;7.72;74.78;99660.16;5071479;28;20433;-81
2021/05/22 01:58:34;;;;;;;3.78;1.38;;;;;;;7.71;74.69;99674.03;5056490;28;20088;-88
2021/05/22 02:01:00;;;;;;;3.08;0.98;;;;;;;7.68;74.35;99658.50;5049763;28;20092;-84
2021/05/22 02:03:48;;;;;;;3.15;1.00;;;;;;;7.60;75.79;99659.50;5055796;28;20021;-84
2021/05/22 02:06:31;;;;;;;4.10;0.90;;;;;;;7.57;74.82;99664.78;5071527;28;20050;-82
2021/05/22 02:08:58;;;;;;;2.85;0.95;;;;;;;7.56;75.44;99665.66;5065747;28;20363;-83
2021/05/22 02:11:27;;;;;;;3.95;1.77;;;;;;;7.57;75.98;99666.53;5053995;28;20029;-81
2021/05/22 02:13:57;;;;;;;4.43;0.90;;;;;;;7.55;75.40;99674.34;5052553;28;20040;-83
2021/05/22 02:16:25;;;;;;;1.75;1.05;;;;;;;7.54;76.50;99677.84;5049516;28;20032;-82
2021/05/22 02:18:55;;;;;;;3.30;1.17;;;;;;;7.37;76.46;99669.50;5052448;28;20082;-84
2021/05/22 02:21:26;;;;;;;3.25;1.35;;;;;;;7.44;76.33;99674.56;5051097;28;20027;-86
2021/05/22 02:23:52;;;;;;;7.03;1.10;;;;;;;7.44;76.38;99671.09;5051894;28;20005;-85
2021/05/22 02:26:24;;;;;;;5.38;1.15;;;;;;;7.36;77.10;99675.59;5046197;28;20028;-82
2021/05/22 02:28:53;;;;;;;5.35;1.60;;;;;;;7.36;77.04;99667.78;5067698;28;20040;-80
2021/05/22 02:31:31;;;;;;;2.17;1.20;;;;;;;7.33;76.48;99658.31;5050862;28;20021;-81
2021/05/22 02:34:01;;;;;;;3.50;1.50;;;;;;;7.38;77.25;99666.88;5049813;28;20021;-83
2021/05/22 02:36:27;;;;;;;4.63;1.88;;;;;;;7.34;76.79;99674.78;5063819;28;20452;-82
2021/05/22 02:38:53;;;;;;;3.40;1.00;;;;;;;7.21;78.44;99668.94;5047591;28;20025;-89
2021/05/22 02:41:25;;;;;;;3.75;1.10;;;;;;;7.22;77.95;99663.72;5046368;28;20097;-81
2021/05/22 02:44:03;;;;;;;2.38;0.70;;;;;;;7.17;78.00;99660.38;5050602;28;20040;-82
2021/05/22 02:46:35;;;;;;;4.22;1.08;;;;;;;7.15;78.94;99659.53;5051998;28;20029;-81
2021/05/22 02:49:01;;;;;;;3.90;0.93;;;;;;;7.20;78.67;99649.91;5049033;28;20028;-85
2021/05/22 02:51:27;;;;;;;8.10;1.67;;;;;;;7.06;79.23;99654.50;5048390;28;20017;-82
2021/05/22 02:53:53;;;;;;;2.40;1.05;;;;;;;7.10;78.04;99651.84;5043730;28;20028;-82
2021/05/22 02:56:19;;;;;;;2.90;0.80;;;;;;;7.13;78.32;99644.84;5047200;28;20078;-84
2021/05/22 02:58:45;;;;;;;5.22;1.15;;;;;;;7.04;78.24;99645.88;5063434;28;20047;-83
2021/05/22 03:01:11;;;;;;;1.60;0.88;;;;;;;7.04;78.87;99644.13;5046414;28;20067;-82
2021/05/22 03:03:40;;;;;;;2.58;0.80;;;;;;;7.11;79.47;99642.28;5062552;28;20029;-82
2021/05/22 03:06:06;;;;;;;7.25;1.15;;;;;;;7.15;78.41;99643.09;5045943;28;20025;-82
2021/05/22 03:08:51;;;;;;;2.65;1.02;;;;;;;7.07;79.42;99635.44;5064477;28;20028;-84
2021/05/22 03:11:18;;;;;;;4.68;0.73;;;;;;;7.09;79.06;99638.88;5046673;28;20036;-82
2021/05/22 03:13:44;;;;;;;2.20;1.35;;;;;;;7.13;78.58;99644.84;5065259;28;20029;-82
2021/05/22 03:16:10;;;;;;;2.65;1.00;;;;;;;7.16;78.05;99635.28;5049936;28;20112;-83
2021/05/22 03:18:35;;;;;;;3.42;1.10;;;;;;;7.10;78.47;99628.47;5061110;28;20025;-86
2021/05/22 03:21:01;;;;;;;2.60;0.77;;;;;;;7.16;78.25;99622.28;5063859;28;20108;-81
2021/05/22 03:23:30;;;;;;;5.15;0.90;;;;;;;7.21;78.97;99617.00;5050740;28;20029;-81
2021/05/22 03:25:59;;;;;;;3.38;0.80;;;;;;;7.17;78.25;99621.41;5064945;28;20021;-82
2021/05/22 03:28:24;;;;;;;2.17;0.85;;;;;;;7.13;78.53;99629.28;5065042;28;20067;-82
2021/05/22 03:30:51;;;;;;;2.72;1.00;;;;;;;7.11;78.86;99626.72;5046318;28;20021;-82
2021/05/22 03:33:17;;;;;;;4.55;0.77;;;;;;;7.14;79.12;99616.25;5049021;28;20082;-82
2021/05/22 03:35:43;;;;;;;3.58;1.48;;;;;;;7.13;78.70;99619.75;5062551;28;20009;-81
2021/05/22 03:38:09;;;;;;;2.55;0.88;;;;;;;7.09;78.64;99623.28;5046223;28;20037;-83
2021/05/22 03:40:34;;;;;;;6.40;1.40;;;;;;;7.09;78.50;99612.91;5045954;28;20031;-81
2021/05/22 03:42:59;;;;;;;2.03;0.85;;;;;;;7.11;79.00;99621.50;5048332;28;20051;-82
2021/05/22 03:45:25;;;;;;;3.40;1.40;;;;;;;7.22;78.91;99618.72;5043085;28;20032;-80
2021/05/22 03:47:51;;;;;;;3.25;0.80;;;;;;;7.21;78.40;99620.47;5045105;28;20023;-83
2021/05/22 03:50:16;;;;;;;4.32;1.02;;;;;;;7.23;78.33;99616.06;5058279;28;20110;-84
2021/05/22 03:52:42;;;;;;;2.17;1.10;;;;;;;7.32;78.28;99624.56;5044725;28;20068;-84
2021/05/22 03:55:10;;;;;;;2.75;0.90;;;;;;;7.43;77.54;99607.00;5047291;28;20032;-79
2021/05/22 03:57:36;;;;;;;4.65;1.17;;;;;;;7.47;76.97;99618.22;5045063;28;20045;-80
2021/05/22 04:00:04;;;;;;;3.03;0.85;;;;;;;7.53;76.09;99612.91;5046493;28;20029;-82
2021/05/22 04:02:33;;;;;;;1.75;1.10;;;;;;;7.57;76.12;99615.38;5045817;28;20021;-82
2021/05/22 04:04:58;;;;;;;4.18;1.05;;;;;;;7.66;76.45;99618.69;5040818;28;20032;-82
2021/05/22 04:07:24;;;;;;;5.50;1.15;;;;;;;7.76;76.72;99622.81;5045049;28;20401;-87
2021/05/22 04:09:49;;;;;;;2.88;0.75;;;;;;;7.79;75.38;99620.13;5041592;28;20021;-85
2021/05/22 04:12:14;;;;;;;2.05;0.90;;;;;;;7.75;75.51;99618.50;5044150;28;20044;-82
2021/05/22 04:14:40;;;;;;;0.77;0.40;;;;;;;7.82;75.21;99614.84;5057901;28;20166;-81
2021/05/22 04:17:11;;;;;;;4.20;0.80;;;;;;;7.87;74.83;99607.81;5041051;28;20028;-84
2021/05/22 04:19:37;;;;;;;3.22;0.82;;;;;;;7.91;75.30;99598.22;5062542;28;20021;-80
2021/05/22 04:22:02;;;;;;;4.50;0.65;;;;;;;7.94;74.99;99611.97;5042024;28;20384;-82
2021/05/22 04:24:28;;;;;;;2.28;0.70;;;;;;;7.95;74.02;99608.50;5042976;28;20063;-77
2021/05/22 04:26:57;;;;;;;2.10;0.68;;;;;;;8.00;74.59;99617.94;5064634;28;20040;-86
2021/05/22 04:29:22;;;;;;;3.55;1.13;;;;;;;8.05;73.76;99618.69;5057576;28;20024;-83
2021/05/22 04:31:48;;;;;;;1.92;0.70;;;;;;;7.95;73.66;99613.69;5042052;28;20021;-83
2021/05/22 04:34:13;;;;;;;2.55;0.80;;;;;;;7.93;74.64;99618.09;5042865;28;20020;-80
2021/05/22 04:36:39;;;;;;;2.08;0.50;;;;;;;8.05;74.58;99613.50;5046300;28;20029;-78
2021/05/22 04:39:06;;;;;;;1.10;0.50;;;;;;;8.09;73.94;99615.13;5046539;28;20029;-80
2021/05/22 04:41:31;;;;;;;3.28;0.65;;;;;;;8.21;72.92;99622.66;5045315;28;20110;-85
2021/05/22 04:43:57;;;;;;;3.85;0.88;;;;;;;8.23;72.86;99618.25;5061317;28;20307;-83
2021/05/22 04:46:26;;;;;;;2.22;0.43;;;;;;;8.25;72.51;99613.88;5056520;28;20032;-81
2021/05/22 04:48:53;;;;;;;2.63;0.90;;;;;;;8.25;72.80;99611.28;5059838;28;20023;-82
2021/05/22 04:51:19;;;;;;;2.92;0.98;;;;;;;8.36;72.56;99604.97;5041338;28;20046;-85
2021/05/22 04:53:47;;;;;;;1.35;0.77;;;;;;;8.34;72.30;99614.53;5041726;28;20028;-83
2021/05/22 04:56:21;;;;;;;5.20;1.25;;;;;;;8.41;72.03;99609.16;5042297;28;20036;-82
2021/05/22 04:58:46;;;;;;;1.48;0.43;;;;;;;8.55;72.39;99614.06;5059752;28;20433;-88
2021/05/22 05:01:14;;;;;;;4.43;0.77;;;;;;;8.60;71.18;99604.38;5043791;28;20028;-82
2021/05/22 05:03:42;;;;;;;1.90;0.77;;;;;;;8.69;71.43;99611.09;5042544;28;20025;-81
2021/05/22 05:06:08;;;;;;;3.25;0.70;;;;;;;8.75;70.49;99610.94;5041527;28;20021;-86
2021/05/22 05:08:34;;;;;;;2.60;0.70;;;;;;;8.74;70.91;99611.84;5041736;28;20432;-82
2021/05/22 05:10:59;;;;;;;4.45;0.90;;;;;;;8.84;70.99;99601.19;5044366;28;20036;-83
2021/05/22 05:13:25;;;;;;;3.67;0.80;;;;;;;8.98;69.59;99609.47;5057281;28;20078;-82
2021/05/22 05:15:50;;;;;;;1.45;0.55;;;;;;;9.11;70.52;99612.59;5060109;28;20025;-80
2021/05/22 05:18:16;;;;;;;2.92;1.02;;;;;;;9.43;68.19;99610.84;5059068;28;20029;-79
2021/05/22 05:20:41;;;;;;;3.17;0.80;;;;;;;9.78;66.91;99614.16;5040586;28;20120;-84
2021/05/22 05:23:06;;;;;;;1.05;0.60;;;;;;;10.00;66.08;99600.47;5043160;28;20036;-80
2021/05/22 05:25:32;;;;;;;1.23;0.82;;;;;;;10.77;62.80;99614.50;5063195;28;20029;-84
2021/05/22 05:27:58;;;;;;;1.20;0.60;;;;;;;10.72;63.01;99605.13;5044748;28;20132;-84
2021/05/22 05:30:26;;;;;;;1.92;0.85;;;;;;;11.02;62.73;99604.97;5047436;28;20055;-82
2021/05/22 05:32:52;;;;;;;7.43;1.38;;;;;;;10.35;63.59;99612.41;5046393;28;20029;-82
2021/05/22 05:35:17;;;;;;;3.15;0.80;;;;;;;10.04;64.50;99607.28;5045205;28;20031;-82
2021/05/22 05:37:42;;;;;;;3.70;0.77;;;;;;;10.13;65.39;99612.22;5043937;28;20090;-81
2021/05/22 05:40:08;;;;;;;1.52;0.60;;;;;;;10.22;63.65;99600.63;5043764;28;20444;-80
2021/05/22 05:42:34;;;;;;;0.98;0.55;;;;;;;10.17;63.72;99612.97;5042551;28;20021;-80
2021/05/22 05:45:01;;;;;;;5.18;0.50;;;;;;;10.40;63.52;99600.09;5043688;28;20021;-80
2021/05/22 05:47:26;;;;;;;3.08;0.60;;;;;;;11.16;60.24;99613.16;5043033;28;20304;-82
2021/05/22 05:49:51;;;;;;;1.98;0.45;;;;;;;11.48;59.52;99603.28;5043331;28;20020;-82
2021/05/22 05:52:19;;;;;;;1.52;0.52;;;;;;;12.00;58.15;99603.94;5059781;28;20021;-84
2021/05/22 05:54:45;;;;;;;2.08;0.57;;;;;;;12.43;56.33;99616.19;5044298;28;20097;-82
2021/05/22 05:57:10;;;;;;;1.05;0.40;;;;;;;11.23;59.19;99606.78;5044807;28;20135;-79
2021/05/22 05:59:38;;;;;;;1.02;0.50;;;;;;;12.27;55.55;99595.88;5044764;28;20131;-82
2021/05/22 06:02:07;;;;;;;2.33;0.60;;;;;;;11.88;57.83;99601.75;5047488;28;20046;-78
2021/05/22 06:04:33;;;;;;;1.20;0.63;;;;;;;11.69;58.75;99599.00;5045086;28;20028;-82
2021/05/22 06:06:58;;;;;;;1.60;0.70;;;;;;;11.81;57.25;99593.28;5061104;28;20028;-82
2021/05/22 06:09:23;;;;;;;2.33;0.90;;;;;;;11.64;58.41;99611.41;5043843;28;20088;-81
2021/05/22 06:11:49;;;;;;;2.05;0.93;;;;;;;11.54;58.60;99623.13;5043418;28;20274;-80
2021/05/22 06:14:17;;;;;;;3.45;0.85;;;;;;;11.89;58.53;99615.69;5059845;28;20021;-84
2021/05/22 06:16:43;;;;;;;3.65;1.20;;;;;;;12.65;56.20;99600.44;5041544;28;20033;-84
2021/05/22 06:19:10;;;;;;;3.75;0.57;;;;;;;11.88;56.19;99593.91;5061011;28;20028;-82
2021/05/22 06:21:37;;;;;;;1.58;0.47;;;;;;;12.22;56.12;99603.06;5060305;28;20024;-82
2021/05/22 06:24:04;;;;;;;2.53;0.63;;;;;;;11.78;56.74;99601.28;5060162;28;20028;-79
2021/05/22 06:26:29;;;;;;;2.65;0.88;;;;;;;12.31;55.85;99607.94;5042211;28;20025;-87
2021/05/22 06:28:55;;;;;;;3.05;0.68;;;;;;;12.37;57.04;99603.38;5042527;28;20035;-84
2021/05/22 06:31:20;;;;;;;0.95;0.45;;;;;;;12.26;56.17;99607.28;5043174;28;20111;-83
2021/05/22 06:33:46;;;;;;;2.55;0.73;;;;;;;11.74;57.64;99614.50;5059944;28;20021;-80
2021/05/22 06:36:11;;;;;;;2.25;0.73;;;;;;;11.55;58.25;99610.00;5057593;28;20037;-82
2021/05/22 06:38:37;;;;;;;2.28;0.50;;;;;;;11.26;59.04;99622.38;5060766;28;20079;-84
2021/05/22 06:41:02;;;;;;;1.90;0.68;;;;;;;11.09;59.81;99611.69;5043074;28;20017;-82
2021/05/22 06:43:28;;;;;;;2.33;0.43;;;;;;;11.09;60.22;99609.91;5038791;28;20140;-81
2021/05/22 06:48:31;;;;;;;1.80;0.70;;;;;;;11.09;60.13;99603.84;5056729;28;20043;-81
2021/05/22 06:50:57;;;;;;;1.65;0.52;;;;;;;11.31;61.09;99606.50;5060566;28;20024;-83
2021/05/22 06:53:25;;;;;;;1.17;0.70;;;;;;;11.22;60.86;99610.34;5059899;28;20036;-83
2021/05/22 06:55:51;;;;;;;2.47;0.60;;;;;;;11.26;61.41;99614.53;5043132;28;20025;-83
2021/05/22 06:58:18;;;;;;;1.30;0.65;;;;;;;11.34;59.31;99614.25;5041343;28;20074;-79
2021/05/22 07:00:43;;;;;;;2.05;0.60;;;;;;;11.15;60.47;99620.16;5042912;28;20056;-78
2021/05/22 07:03:08;;;;;;;3.47;0.73;;;;;;;11.57;60.45;99616.00;5044668;28;20029;-82
2021/05/22 07:05:37;;;;;;;3.65;0.60;;;;;;;11.80;59.68;99611.66;5044024;28;20024;-83
2021/05/22 07:08:02;;;;;;;1.15;0.50;;;;;;;12.00;58.37;99609.16;5060164;28;20029;-82
2021/05/22 07:10:32;;;;;;;3.58;0.63;;;;;;;12.00;58.58;99613.56;5058862;28;20025;-83
2021/05/22 07:13:05;;;;;;;3.75;0.65;;;;;;;11.56;59.61;99606.47;5032693;28;20021;-82
2021/05/22 07:15:37;;;;;;;2.60;0.70;;;;;;;11.74;58.86;99611.91;5050025;28;20057;-85
2021/05/22 07:18:02;;;;;;;1.45;0.60;;;;;;;11.71;58.83;99606.78;5046471;28;20031;-85
2021/05/22 07:20:58;;;;;;;;;;;;;;;;;;;;;
2021/05/22 07:23:24;;;;;;;1.85;0.50;;;;;;;12.13;57.06;99608.66;5050264;28;20041;-86
2021/05/22 07:25:52;;;;;;;2.05;0.57;;;;;;;11.63;58.18;99605.31;5038819;28;20117;-85
2021/05/22 07:28:18;;;;;;;2.50;0.90;;;;;;;11.58;59.00;99611.66;5055707;28;20025;-80
2021/05/22 07:31:02;;;;;;;3.58;0.73;;;;;;;11.43;59.59;99602.59;5038251;28;20021;-83
2021/05/22 07:33:28;;;;;;;2.67;1.60;;;;;;;11.66;59.49;99612.22;5042610;28;20056;-79
2021/05/22 07:35:54;;;;;;;3.33;0.73;;;;;;;11.92;57.71;99603.34;5039577;28;20029;-83
2021/05/22 07:38:30;;;;;;;2.90;0.75;;;;;;;11.92;57.60;99607.75;5057771;28;20020;-81
2021/05/22 07:40:56;;;;;;;2.00;0.65;;;;;;;11.95;56.86;99592.78;5037574;28;20040;-81
2021/05/22 07:43:40;;;;;;;4.10;0.77;;;;;;;12.34;56.50;99612.19;5039776;28;20043;-81
2021/05/22 07:46:15;;;;;;;1.33;0.60;;;;;;;12.24;56.86;99601.22;5038514;28;20020;-82
2021/05/22 07:48:55;;;;;;;1.52;0.80;;;;;;;12.56;55.80;99603.47;5042069;28;20028;-78
2021/05/22 07:51:34;;;;;;;3.13;0.57;;;;;;;12.59;56.91;99596.31;5029011;28;20099;-83
2021/05/22 07:54:03;;;;;;;2.00;0.77;;;;;;;12.74;55.57;99599.22;5031986;28;20545;-83
2021/05/22 07:56:32;;;;;;;2.38;0.68;;;;;;;12.68;56.36;99601.16;5035906;28;20043;-82
2021/05/22 07:58:58;;;;;;;2.55;0.60;;;;;;;12.46;57.99;99600.34;5054063;28;20021;-83
2021/05/22 08:01:23;;;;;;;2.83;1.15;;;;;;;12.22;57.18;99618.78;5035604;28;20476;-79
2021/05/22 08:03:57;;;;;;;2.03;0.55;;;;;;;11.96;57.76;99607.56;5045106;28;20017;-83
2021/05/22 08:06:47;;;;;;;0.98;0.60;;;;;;;11.33;59.68;99602.94;5036377;28;20025;-84
2021/05/22 08:09:21;;;;;;;3.30;0.70;;;;;;;11.48;59.22;99606.75;5024103;28;20025;-81
2021/05/22 08:11:50;;;;;;;1.73;0.65;;;;;;;11.66;59.84;99594.72;5051303;28;20430;-83
2021/05/22 08:14:30;;;;;;;1.70;0.52;;;;;;;11.65;58.99;99613.94;5038575;28;20119;-82
2021/05/22 08:16:56;;;;;;;1.02;0.40;;;;;;;11.36;59.41;99601.09;5038756;28;20342;-86
2021/05/22 08:19:25;;;;;;;4.07;0.65;;;;;;;11.29;59.42;99610.97;5054991;28;20429;-81
2021/05/22 08:21:53;;;;;;;4.53;0.80;;;;;;;11.31;59.38;99619.59;5040105;28;20044;-81
2021/05/22 08:24:19;;;;;;;2.45;0.77;;;;;;;11.58;58.92;99607.25;5037266;28;20414;-84
2021/05/22 08:26:55;;;;;;;3.20;1.05;;;;;;;11.54;60.34;99613.50;5026935;28;20075;-79
2021/05/22 08:29:20;;;;;;;2.30;0.70;;;;;;;11.66;60.99;99609.59;5050940;28;20021;-83
2021/05/22 08:31:49;;;;;;;3.08;0.70;;;;;;;11.15;63.45;99607.09;5039241;28;20017;-81
2021/05/22 08:34:39;;;;;;;3.88;0.65;;;;;;;11.20;65.09;99612.13;5035607;28;20025;-82
2021/05/22 08:37:26;;;;;;;2.38;0.50;;;;;;;10.92;65.40;99615.75;5037009;28;20032;-89
2021/05/22 08:39:52;;;;;;;5.35;0.77;;;;;;;10.98;66.75;99618.13;5044659;28;20021;-83
2021/05/22 08:42:27;;;;;;;3.17;0.55;;;;;;;11.01;67.68;99614.53;5042202;28;20017;-83
2021/05/22 08:44:53;;;;;;;3.63;0.73;;;;;;;10.90;66.40;99620.16;5052261;28;20036;-83
2021/05/22 08:47:21;;;;;;;3.47;0.80;;;;;;;10.92;66.39;99615.75;5037006;28;20032;-84
2021/05/22 08:49:50;;;;;;;5.15;0.60;;;;;;;10.77;66.05;99617.13;5055220;28;20029;-86
2021/05/22 08:52:20;;;;;;;4.47;0.98;;;;;;;10.94;68.42;99626.97;5038471;28;20417;-82
2021/05/22 08:54:46;;;;;;;2.10;0.52;;;;;;;10.83;65.73;99623.88;5035132;28;20112;-82
2021/05/22 08:57:18;;;;;;;1.75;0.55;;;;;;;10.98;66.31;99625.13;5035033;28;20456;-84
2021/05/22 08:59:48;;;;;;;2.88;0.95;;;;;;;10.69;67.56;99621.75;5045503;28;20029;-84
2021/05/22 09:02:24;;;;;;;3.58;0.60;;;;;;;10.69;68.75;99626.09;5031643;28;20021;-86
2021/05/22 09:05:09;;;;;;;3.72;0.93;;;;;;;10.27;70.52;99636.13;5040686;28;20117;-81
2021/05/22 09:07:54;;;;;;;6.68;0.75;;;;;;;10.24;72.07;99641.44;5031772;28;20084;-88
2021/05/22 09:10:25;;;;;;;2.28;0.75;;;;;;;10.22;72.31;99661.50;5031755;28;20467;-84
2021/05/22 09:12:52;;;;;;;6.57;1.05;;;;;;;10.01;72.73;99667.38;5043323;28;20088;-82
2021/05/22 09:15:30;;;;;;;4.50;1.35;;;;;;;9.95;74.73;99652.78;5036248;28;20429;-81
2021/05/22 09:18:01;;;;;;;1.92;0.60;;;;;;;9.72;75.26;99649.09;5039632;28;20036;-80
2021/05/22 09:20:41;;;;;;;0.90;0.65;;;;;;;9.76;75.72;99655.06;5034448;28;20029;-84
2021/05/22 09:23:20;;;;;;;4.93;0.55;;;;;;;9.78;77.08;99658.50;5052301;28;20020;-88
2021/05/22 09:25:47;;;;;;;2.85;0.70;;;;;;;9.76;76.28;99662.91;5039432;28;20063;-84
2021/05/22 09:28:25;;;;;;;2.45;0.90;;;;;;;9.81;76.84;99655.78;5040579;28;20084;-82
2021/05/22 09:30:54;;;;;;;2.22;1.58;;;;;;;9.84;75.98;99657.47;5036389;28;20033;-85
2021/05/22 09:33:29;;;;;;;2.78;0.70;;;;;;;9.88;77.50;99659.06;5039905;28;20035;-83
2021/05/22 09:36:03;;;;;;;1.50;0.90;;;;;;;9.77;76.50;99655.03;5039095;28;20024;-84
2021/05/22 09:38:45;;;;;;;3.17;1.30;;;;;;;9.70;76.93;99650.91;5053764;28;20025;-82
2021/05/22 09:41:21;;;;;;;3.95;0.80;;;;;;;9.90;78.96;99652.06;5037460;28;20020;-81
2021/05/22 09:44:25;;;;;;;3.88;0.85;;;;;;;9.96;78.74;99654.47;5049679;28;20429;-82
2021/05/22 09:46:50;;;;;;;2.58;0.77;;;;;;;10.05;75.45;99643.78;5034956;28;20056;-81
2021/05/22 09:49:29;;;;;;;2.38;0.93;;;;;;;10.13;78.23;99644.38;5056968;28;20551;-84
2021/05/22 09:51:58;;;;;;;2.78;0.95;;;;;;;10.35;75.14;99650.72;5055050;28;20017;-82
2021/05/22 09:54:40;;;;;;;2.28;0.90;;;;;;;10.41;76.31;99643.53;5054387;28;20025;-80
2021/05/22 09:57:06;;;;;;;2.95;1.10;;;;;;;10.49;76.20;99651.13;5050900;28;20049;-82
2021/05/22 09:59:31;;;;;;;3.10;0.73;;;;;;;10.62;75.50;99647.22;5054960;28;20437;-79
2021/05/22 10:02:34;;;;;;;2.35;0.80;;;;;;;10.75;74.57;99657.25;5052142;28;20020;-80
2021/05/22 10:05:46;;;;;;;4.15;1.42;;;;;;;10.48;76.30;99654.63;5050451;28;20043;-82
2021/05/22 10:08:27;;;;;;;5.95;0.57;;;;;;;10.74;74.00;99655.53;5033149;28;20095;-79
2021/05/22 10:11:21;;;;;;;2.17;0.70;;;;;;;10.87;74.38;99641.16;5052711;28;20021;-81
2021/05/22 10:13:46;;;;;;;2.10;0.65;;;;;;;10.75;73.63;99641.59;5054449;28;20048;-82
2021/05/22 10:16:12;;;;;;;1.30;0.73;;;;;;;10.23;73.44;99638.88;5058131;28;20029;-80
2021/05/22 10:18:40;;;;;;;6.35;1.00;;;;;;;10.25;74.32;99645.78;5042024;28;20039;-79
2021/05/22 10:21:08;;;;;;;1.17;0.63;;;;;;;10.30;76.15;99651.66;5059121;28;20032;-84
2021/05/22 10:23:35;;;;;;;3.60;0.80;;;;;;;10.26;77.35;99646.63;5043252;28;20043;-82
2021/05/22 10:26:01;;;;;;;1.98;1.00;;;;;;;10.28;77.57;99643.06;5058278;28;20421;-85
2021/05/22 10:28:31;;;;;;;1.50;0.60;;;;;;;10.10;78.02;99656.66;5043093;28;20286;-83
2021/05/22 10:30:57;;;;;;;2.50;0.80;;;;;;;10.17;78.20;99653.00;5042525;28;20108;-81
2021/05/22 10:33:25;;;;;;;4.35;0.93;;;;;;;10.18;78.58;99652.06;5043654;28;20063;-84
2021/05/22 10:35:56;;;;;;;1.67;0.68;;;;;;;9.98;78.43;99660.53;5058053;28;20426;-81
2021/05/22 10:38:33;;;;;;;2.45;1.40;;;;;;;9.84;81.68;99673.97;5043235;28;20032;-82
2021/05/22 10:41:23;;;;;;;3.95;0.70;;;;;;;10.01;82.30;99636.94;5059020;28;20108;-82
2021/05/22 10:44:01;;;;;;;3.22;0.80;;;;;;;10.08;80.69;99655.88;5057194;28;20024;-83
2021/05/22 10:46:33;;;;;;;0.80;0.80;;;;;;;9.98;79.93;99668.34;5035207;28;20029;-82
2021/05/22 10:49:01;;;;;;;3.70;1.10;;;;;;;9.90;80.06;99673.78;5042719;28;20021;-82
2021/05/22 10:51:44;;;;;;;4.32;1.00;;;;;;;9.90;81.39;99673.78;5056821;28;20100;-80
2021/05/22 10:54:13;;;;;;;1.35;0.60;;;;;;;9.96;79.91;99663.16;5040549;28;20331;-84
2021/05/22 10:57:09;;;;;;;2.10;1.10;;;;;;;9.97;80.53;99675.31;5042113;28;20017;-86
2021/05/22 10:59:58;;;;;;;3.45;0.95;;;;;;;9.88;82.30;99682.56;5039814;28;20116;-84
2021/05/22 11:02:39;;;;;;;3.22;1.00;;;;;;;9.87;82.49;99678.22;5056476;28;20033;-82
2021/05/22 11:19:56;;;;;;;;;;;;;;;;;;;;;
2021/05/22 11:32:43;;;;;;;4.60;1.05;;;;;;;9.83;80.17;99698.34;5054144;28;20037;-76
2021/05/22 11:35:24;;;;;;;2.22;1.60;;;;;;;9.92;80.48;99695.44;5002686;28;20033;-76
2021/05/22 11:37:49;;;;;;;2.60;1.00;;;;;;;9.89;79.39;99692.94;5029564;28;20086;-76
2021/05/22 11:40:34;;;;;;;2.55;1.00;;;;;;;9.85;78.98;99704.38;5012117;28;20026;-76
2021/05/22 11:43:25;;;;;;;1.88;0.80;;;;;;;9.87;78.19;99709.53;5010046;28;20416;-76
2021/05/22 11:45:59;;;;;;;3.53;1.15;;;;;;;9.93;77.63;99705.00;5028941;28;20163;-76
2021/05/22 11:48:50;;;;;;;2.90;1.57;;;;;;;9.89;77.58;99698.16;5018356;28;20029;-76
2021/05/22 11:51:25;;;;;;;3.78;1.23;;;;;;;9.84;78.82;99715.69;4989305;28;20044;-76
2021/05/22 11:53:55;;;;;;;2.13;0.90;;;;;;;9.91;79.11;99703.31;4997917;28;20103;-77
2021/05/22 11:56:20;;;;;;;3.17;1.13;;;;;;;10.06;78.12;99712.44;5013788;28;20131;-76
2021/05/22 11:58:52;;;;;;;2.30;1.10;;;;;;;10.23;77.58;99702.38;5002408;28;20451;-74
2021/05/22 12:01:23;;;;;;;0.80;0.80;;;;;;;10.32;76.84;99702.09;5000821;28;20462;-74
2021/05/22 12:03:51;;;;;;;2.17;1.08;;;;;;;10.27;76.94;99714.41;5028287;28;20017;-74
2021/05/22 12:06:43;;;;;;;2.30;1.58;;;;;;;10.35;76.89;99709.00;4998901;28;20038;-74
2021/05/22 12:09:14;;;;;;;2.63;1.15;;;;;;;10.51;76.64;99704.13;4978709;28;20092;-75
2021/05/22 12:11:53;;;;;;;3.88;0.90;;;;;;;10.55;76.58;99707.50;4996403;28;20025;-76
2021/05/22 12:14:18;;;;;;;1.42;0.90;;;;;;;10.83;74.66;99707.47;4997273;28;20029;-76
2021/05/22 12:16:43;;;;;;;1.95;0.80;;;;;;;11.12;73.97;99708.25;4980799;28;20336;-75
2021/05/22 12:19:17;;;;;;;4.45;1.15;;;;;;;11.14;74.11;99709.06;4997076;28;20331;-75
2021/05/22 12:21:52;;;;;;;1.42;0.88;;;;;;;11.07;74.01;99699.72;4997428;28;20024;-76
2021/05/22 12:24:19;;;;;;;2.70;0.95;;;;;;;10.74;75.17;99721.69;4997710;28;20021;-76